Time;durP1;ratioP1;P1;durP2;ratioP2;P2;SDS_P1;SDS_P2;PMS_P1;PMS_P2;Temp;Humidity;BMP_temperature;BMP_pressure;BME280_temperature;BME280_humidity;BME280_pressure;Samples;Min_cycle;Max_cycle;Signal;HPM_P1;HPM_P2
2021/09/12 00:00:05;;;;;;;12.43;10.10;;;;;;;15.76;95.74;98025.38;5051984;28;20032;-79
2021/09/12 00:02:31;;;;;;;12.02;9.07;;;;;;;15.85;95.10;98017.09;5050665;28;20477;-77
2021/09/12 00:04:56;;;;;;;9.95;8.43;;;;;;;15.78;95.26;98023.13;5051830;28;20032;-80
2021/09/12 00:07:21;;;;;;;11.55;9.23;;;;;;;15.67;95.52;98005.28;5052060;28;20033;-80
2021/09/12 00:09:47;;;;;;;12.38;9.88;;;;;;;15.74;94.17;98021.31;5052312;28;20507;-77
2021/09/12 00:12:12;;;;;;;10.02;8.73;;;;;;;15.84;94.01;98032.84;5055267;28;20219;-76
2021/09/12 00:14:38;;;;;;;10.93;9.13;;;;;;;15.90;93.21;98026.00;5056012;28;20033;-78
2021/09/12 00:17:04;;;;;;;10.73;8.27;;;;;;;15.86;93.49;98036.06;5051983;28;20082;-77
2021/09/12 00:19:29;;;;;;;11.15;8.05;;;;;;;15.93;92.74;98033.63;5050852;28;20029;-78
2021/09/12 00:21:54;;;;;;;15.95;8.60;;;;;;;15.86;92.78;98030.53;5049378;28;20033;-78
2021/09/12 00:24:20;;;;;;;11.38;8.00;;;;;;;15.97;92.18;98025.50;5050548;28;20025;-77
2021/09/12 00:26:45;;;;;;;12.80;9.00;;;;;;;15.92;92.80;98034.75;5051304;28;20032;-77
2021/09/12 00:29:11;;;;;;;9.50;8.57;;;;;;;15.91;93.56;98033.13;5051184;28;20142;-78
2021/09/12 00:31:36;;;;;;;10.63;8.40;;;;;;;15.58;95.11;98018.25;5051580;28;20367;-79
2021/09/12 00:34:01;;;;;;;10.98;9.63;;;;;;;15.43;96.55;98024.25;5050273;28;21138;-78
2021/09/12 00:36:27;;;;;;;9.32;7.72;;;;;;;15.32;97.72;98026.50;5049871;28;20032;-77
2021/09/12 00:38:52;;;;;;;15.07;9.88;;;;;;;15.23;98.50;98035.91;5033485;28;20032;-77
2021/09/12 00:41:18;;;;;;;13.15;9.38;;;;;;;15.37;97.23;98033.81;5051254;28;20025;-77
2021/09/12 00:43:44;;;;;;;13.60;10.90;;;;;;;15.15;99.17;98025.69;5049667;28;20045;-77
2021/09/12 00:46:09;;;;;;;12.80;9.80;;;;;;;15.13;99.51;98022.47;5051391;28;20111;-79
2021/09/12 00:48:36;;;;;;;10.70;9.15;;;;;;;14.98;100.00;98027.31;5051317;28;20478;-79
2021/09/12 00:51:05;;;;;;;11.35;10.23;;;;;;;14.87;100.00;98026.00;5049148;28;20033;-78
2021/09/12 00:53:32;;;;;;;11.93;9.65;;;;;;;14.95;100.00;98027.94;5050059;28;20033;-78
2021/09/12 00:56:00;;;;;;;19.75;9.77;;;;;;;14.89;100.00;98033.94;5051136;28;20021;-77
2021/09/12 00:58:28;;;;;;;12.90;9.82;;;;;;;14.92;100.00;98033.28;5050852;28;20440;-79
2021/09/12 01:00:54;;;;;;;11.45;9.57;;;;;;;14.91;100.00;98029.72;5051065;28;20025;-79
2021/09/12 01:03:21;;;;;;;12.27;10.25;;;;;;;14.88;100.00;98018.53;5049773;28;20390;-77
2021/09/12 01:05:46;;;;;;;11.10;9.65;;;;;;;14.81;100.00;98030.03;5051181;28;20029;-78
2021/09/12 01:08:12;;;;;;;14.35;10.38;;;;;;;14.84;100.00;98026.66;5050743;28;20055;-78
2021/09/12 01:10:39;;;;;;;11.77;9.63;;;;;;;14.79;100.00;98034.22;5051316;28;20017;-77
2021/09/12 01:13:05;;;;;;;13.60;10.18;;;;;;;14.59;100.00;98021.88;5049710;28;20064;-77
2021/09/12 01:15:31;;;;;;;13.00;10.50;;;;;;;14.69;100.00;98038.09;5049118;28;20053;-77
2021/09/12 01:17:56;;;;;;;10.77;9.25;;;;;;;14.62;100.00;98035.00;5050876;28;20033;-78
2021/09/12 01:20:22;;;;;;;12.52;10.30;;;;;;;14.67;100.00;98026.59;5049047;28;20429;-80
2021/09/12 01:22:50;;;;;;;14.18;9.32;;;;;;;14.91;100.00;98023.41;5050857;28;20044;-80
2021/09/12 01:25:16;;;;;;;12.80;9.77;;;;;;;14.92;100.00;98034.09;5050053;28;20021;-81
2021/09/12 01:27:42;;;;;;;15.05;10.82;;;;;;;14.87;100.00;98023.25;5049826;28;20071;-82
2021/09/12 01:30:08;;;;;;;14.93;10.90;;;;;;;14.93;100.00;98029.41;5050486;28;20115;-77
2021/09/12 01:32:34;;;;;;;14.52;11.05;;;;;;;15.10;100.00;98034.13;5050812;28;20033;-77
2021/09/12 01:34:59;;;;;;;13.50;10.07;;;;;;;15.13;99.50;98033.50;5050848;28;20044;-79
2021/09/12 01:37:25;;;;;;;12.32;9.63;;;;;;;14.97;99.52;98025.66;5051228;28;20021;-77
2021/09/12 01:39:50;;;;;;;11.73;9.35;;;;;;;14.86;100.00;98018.84;5050392;28;20068;-77
2021/09/12 01:42:16;;;;;;;11.20;9.63;;;;;;;14.95;99.78;98040.91;5049209;28;20397;-76
2021/09/12 01:44:46;;;;;;;16.85;9.65;;;;;;;14.91;100.00;98029.72;5052358;28;20044;-78
2021/09/12 01:47:11;;;;;;;14.32;10.80;;;;;;;14.85;100.00;98022.75;5037380;28;20025;-78
2021/09/12 01:49:37;;;;;;;10.90;9.45;;;;;;;14.78;100.00;98027.94;5038941;28;20025;-77
2021/09/12 01:52:03;;;;;;;19.65;10.52;;;;;;;14.70;100.00;98030.63;5030251;28;20120;-78
2021/09/12 01:54:28;;;;;;;15.40;10.68;;;;;;;14.82;100.00;98028.06;5030826;28;20045;-77
2021/09/12 01:56:54;;;;;;;15.52;10.05;;;;;;;14.68;100.00;98038.41;5029965;28;20104;-78
2021/09/12 01:59:19;;;;;;;13.15;10.25;;;;;;;14.55;100.00;98026.41;5030108;28;20343;-78
2021/09/12 02:01:46;;;;;;;15.48;10.35;;;;;;;14.48;100.00;98028.78;5029765;28;20034;-77
2021/09/12 02:04:11;;;;;;;12.45;11.15;;;;;;;14.43;100.00;98028.94;5029386;28;20025;-77
2021/09/12 02:06:37;;;;;;;9.63;8.63;;;;;;;14.27;100.00;98022.22;5029382;28;20030;-78
2021/09/12 02:09:03;;;;;;;13.52;9.40;;;;;;;14.32;100.00;98030.31;5032439;28;20028;-78
2021/09/12 02:11:28;;;;;;;12.05;10.02;;;;;;;14.32;100.00;98024.81;5030364;28;20053;-79
2021/09/12 02:13:54;;;;;;;19.92;12.27;;;;;;;14.32;100.00;98019.31;5030215;28;20411;-77
2021/09/12 02:16:21;;;;;;;13.82;10.55;;;;;;;14.33;100.00;98026.47;5030180;28;20040;-78
2021/09/12 02:18:47;;;;;;;14.25;10.82;;;;;;;14.29;100.00;98025.44;5028653;28;20061;-79
2021/09/12 02:21:12;;;;;;;14.43;10.23;;;;;;;14.27;100.00;98023.03;5030304;28;20060;-78
2021/09/12 02:23:37;;;;;;;13.80;10.45;;;;;;;14.37;100.00;98016.47;5031836;28;20025;-77
2021/09/12 02:26:03;;;;;;;12.90;10.35;;;;;;;14.52;100.00;98023.47;5033233;28;20036;-80
2021/09/12 02:28:29;;;;;;;11.15;10.05;;;;;;;14.39;100.00;98017.75;5030618;28;20068;-80
2021/09/12 02:30:54;;;;;;;11.55;10.07;;;;;;;14.39;100.00;98019.69;5028026;28;20033;-77
2021/09/12 02:33:19;;;;;;;11.93;10.30;;;;;;;14.44;100.00;98022.28;5029967;28;20390;-78
2021/09/12 02:35:45;;;;;;;15.95;10.68;;;;;;;14.30;100.00;98027.06;5029947;28;20029;-79
2021/09/12 02:38:12;;;;;;;13.02;11.05;;;;;;;14.40;100.00;98029.59;5029442;28;20513;-76
2021/09/12 02:40:38;;;;;;;13.73;9.90;;;;;;;14.35;100.00;98029.72;5029590;28;20021;-78
2021/09/12 02:43:03;;;;;;;12.82;9.82;;;;;;;14.34;100.00;98028.94;5011691;28;20100;-79
2021/09/12 02:45:29;;;;;;;11.90;9.52;;;;;;;14.36;100.00;98036.84;5032529;28;20107;-79
2021/09/12 02:47:54;;;;;;;13.10;10.05;;;;;;;14.31;100.00;98029.53;5033338;28;20057;-78
2021/09/12 02:50:20;;;;;;;14.60;9.73;;;;;;;14.43;100.00;98027.00;5033202;28;20041;-77
2021/09/12 02:52:45;;;;;;;13.32;10.65;;;;;;;14.27;100.00;98039.53;5033443;28;20080;-79
2021/09/12 02:55:11;;;;;;;11.40;10.20;;;;;;;14.25;100.00;98041.78;5032412;28;20032;-77
2021/09/12 02:57:36;;;;;;;14.30;10.90;;;;;;;14.18;100.00;98038.69;5033211;28;20029;-78
2021/09/12 03:00:03;;;;;;;15.48;10.68;;;;;;;14.28;100.00;98043.91;5031940;28;20024;-77
2021/09/12 03:02:28;;;;;;;11.93;10.73;;;;;;;14.03;100.00;98028.09;5032013;28;20064;-77
2021/09/12 03:04:55;;;;;;;14.70;10.57;;;;;;;14.07;100.00;98039.25;5031325;28;20029;-77
2021/09/12 03:07:20;;;;;;;15.93;10.85;;;;;;;13.89;100.00;98044.69;5034065;28;20021;-77
2021/09/12 03:09:46;;;;;;;15.63;11.23;;;;;;;13.89;100.00;98032.88;5032178;28;20029;-78
2021/09/12 03:12:11;;;;;;;13.00;10.88;;;;;;;14.01;100.00;98035.03;5033744;28;20026;-78
2021/09/12 03:14:37;;;;;;;12.25;10.50;;;;;;;14.09;100.00;98031.53;5033843;28;20017;-77
2021/09/12 03:17:02;;;;;;;15.75;10.82;;;;;;;14.07;100.00;98033.75;5032405;28;20037;-77
2021/09/12 03:19:28;;;;;;;15.23;9.90;;;;;;;14.11;100.00;98029.25;5032016;28;20159;-80
2021/09/12 03:21:53;;;;;;;13.63;10.45;;;;;;;13.98;100.00;98027.41;5032385;28;20037;-77
2021/09/12 03:24:19;;;;;;;11.90;10.30;;;;;;;13.92;100.00;98032.22;5031669;28;20082;-78
2021/09/12 03:26:44;;;;;;;14.00;10.60;;;;;;;14.02;100.00;98042.16;5032443;28;20029;-79
2021/09/12 03:29:09;;;;;;;13.40;10.68;;;;;;;13.95;100.00;98053.59;5032739;28;20021;-77
2021/09/12 03:31:35;;;;;;;15.30;9.88;;;;;;;13.90;100.00;98035.31;5031196;28;20503;-77
2021/09/12 03:34:00;;;;;;;11.15;9.95;;;;;;;13.84;100.00;98036.56;5031759;28;20033;-77
2021/09/12 03:36:26;;;;;;;13.30;9.90;;;;;;;13.85;100.00;98043.66;5032389;28;20032;-79
2021/09/12 03:38:51;;;;;;;10.85;9.70;;;;;;;13.61;100.00;98043.19;5031944;28;20068;-78
2021/09/12 03:41:17;;;;;;;13.13;9.98;;;;;;;13.57;100.00;98042.19;5031217;28;20504;-82
2021/09/12 03:43:42;;;;;;;14.40;10.93;;;;;;;13.56;100.00;98051.59;5033827;28;20044;-77
2021/09/12 03:46:08;;;;;;;12.98;10.52;;;;;;;13.42;100.00;98031.56;5040161;28;20025;-79
2021/09/12 03:48:33;;;;;;;13.43;9.50;;;;;;;13.50;100.00;98043.78;5039462;28;20438;-78
2021/09/12 03:50:59;;;;;;;12.23;10.43;;;;;;;13.45;100.00;98041.94;5021847;28;20029;-79
2021/09/12 03:53:24;;;;;;;10.88;9.43;;;;;;;13.33;100.00;98036.19;5018431;28;20505;-79
2021/09/12 03:55:49;;;;;;;12.70;11.25;;;;;;;13.37;100.00;98053.69;5032381;28;20040;-78
2021/09/12 03:58:15;;;;;;;12.70;10.75;;;;;;;13.44;100.00;98053.25;5015038;28;20030;-78
2021/09/12 04:00:41;;;;;;;12.50;10.02;;;;;;;13.35;100.00;98061.41;5034773;28;20025;-78
2021/09/12 04:03:07;;;;;;;15.18;12.63;;;;;;;13.53;100.00;98054.94;5042982;28;20038;-77
2021/09/12 04:05:35;;;;;;;10.75;9.63;;;;;;;13.63;100.00;98045.63;5021647;28;20044;-77
2021/09/12 04:08:00;;;;;;;12.23;9.80;;;;;;;13.67;100.00;98055.69;5031856;28;20091;-80
2021/09/12 04:10:26;;;;;;;11.75;10.52;;;;;;;13.77;100.00;98052.69;5031856;28;20561;-77
2021/09/12 04:12:51;;;;;;;11.70;10.40;;;;;;;13.80;100.00;98051.25;5031923;28;20413;-77
2021/09/12 04:15:17;;;;;;;12.70;10.32;;;;;;;13.66;100.00;98040.31;5031863;28;20384;-77
2021/09/12 04:17:42;;;;;;;13.27;9.82;;;;;;;13.64;100.00;98056.31;5013467;28;20482;-79
2021/09/12 04:20:08;;;;;;;12.02;10.85;;;;;;;13.50;100.00;98047.31;5031577;28;20013;-78
2021/09/12 04:22:34;;;;;;;12.48;11.20;;;;;;;13.51;100.00;98057.19;5031467;28;20079;-80
2021/09/12 04:25:00;;;;;;;15.55;10.00;;;;;;;13.61;100.00;98058.88;5032414;28;20036;-77
2021/09/12 04:27:25;;;;;;;13.48;10.82;;;;;;;13.65;100.00;98057.13;5031842;28;20033;-77
2021/09/12 04:29:52;;;;;;;10.65;9.50;;;;;;;13.55;100.00;98058.19;5031543;28;20036;-78
2021/09/12 04:35:53;;;;;;;11.98;10.10;;;;;;;13.38;100.00;98047.88;5055104;22;20063;-79
2021/09/12 04:38:19;;;;;;;21.08;11.55;;;;;;;13.39;100.00;98038.50;5033588;28;20393;-78
2021/09/12 04:40:44;;;;;;;11.95;10.63;;;;;;;13.43;100.00;98049.69;5051598;28;20071;-79
2021/09/12 04:43:11;;;;;;;11.65;10.13;;;;;;;13.46;100.00;98043.56;5033620;28;20067;-80
2021/09/12 04:45:36;;;;;;;14.15;10.00;;;;;;;13.58;100.00;98060.31;5051446;28;20029;-78
2021/09/12 04:48:02;;;;;;;10.43;9.38;;;;;;;13.60;100.00;98054.50;5033486;28;20063;-79
2021/09/12 04:50:28;;;;;;;12.80;10.52;;;;;;;13.54;100.00;98048.31;5032854;28;20117;-79
2021/09/12 04:52:53;;;;;;;12.73;10.32;;;;;;;13.55;100.00;98065.63;5051410;28;20124;-82
2021/09/12 04:55:18;;;;;;;14.10;10.98;;;;;;;13.25;100.00;98056.97;5048386;28;20111;-80
2021/09/12 04:57:44;;;;;;;12.77;10.05;;;;;;;13.18;100.00;98064.84;5051165;28;20044;-80
2021/09/12 05:00:12;;;;;;;11.15;10.00;;;;;;;13.32;100.00;98062.03;5051536;28;20025;-81
2021/09/12 05:02:37;;;;;;;11.45;9.80;;;;;;;13.33;100.00;98058.19;5036941;28;20451;-81
2021/09/12 05:05:03;;;;;;;12.07;10.25;;;;;;;13.44;100.00;98058.75;5071275;28;20032;-82
2021/09/12 05:07:29;;;;;;;13.48;10.23;;;;;;;13.35;100.00;98059.47;5052726;28;20085;-79
2021/09/12 05:09:54;;;;;;;13.00;9.43;;;;;;;13.48;100.00;98055.06;5053052;28;20111;-79
2021/09/12 05:12:20;;;;;;;12.73;9.60;;;;;;;13.45;100.00;98063.94;5070995;28;20028;-80
2021/09/12 05:14:45;;;;;;;11.02;9.82;;;;;;;13.58;100.00;98063.06;5071125;28;20016;-81
2021/09/12 05:17:10;;;;;;;11.55;9.48;;;;;;;13.69;100.00;98071.88;5070597;28;20012;-79
2021/09/12 05:19:36;;;;;;;12.57;10.80;;;;;;;13.74;100.00;98078.06;5053008;28;20028;-78
2021/09/12 05:22:01;;;;;;;11.98;10.77;;;;;;;13.85;100.00;98075.84;5053126;28;20021;-80
2021/09/12 05:24:27;;;;;;;11.35;10.15;;;;;;;13.94;100.00;98063.78;5053370;28;20016;-78
2021/09/12 05:26:52;;;;;;;11.40;10.18;;;;;;;14.00;100.00;98082.94;5070873;28;20024;-80
2021/09/12 05:29:18;;;;;;;11.80;10.38;;;;;;;14.23;99.00;98070.75;5052999;28;20077;-79
2021/09/12 05:31:44;;;;;;;11.50;10.30;;;;;;;14.31;98.22;98072.75;5071221;28;20025;-82
2021/09/12 05:34:09;;;;;;;18.23;10.32;;;;;;;14.22;98.22;98074.63;5069326;28;20382;-80
2021/09/12 05:36:35;;;;;;;13.73;10.30;;;;;;;14.42;97.37;98074.91;5053052;28;20024;-79
2021/09/12 05:39:00;;;;;;;11.90;9.77;;;;;;;14.38;97.98;98073.09;5052573;28;20066;-79
2021/09/12 05:41:26;;;;;;;19.83;10.02;;;;;;;14.71;97.00;98077.16;5052819;28;20138;-78
2021/09/12 05:43:51;;;;;;;12.45;10.02;;;;;;;14.71;95.67;98073.56;5052381;28;20021;-80
2021/09/12 05:46:16;;;;;;;14.80;9.20;;;;;;;15.05;94.63;98075.59;5070425;28;20028;-78
2021/09/12 05:48:42;;;;;;;10.98;8.48;;;;;;;14.94;94.53;98084.16;5052711;28;20599;-79
2021/09/12 05:51:07;;;;;;;10.38;9.32;;;;;;;14.90;95.02;98091.47;5070321;28;20101;-80
2021/09/12 05:53:33;;;;;;;11.40;9.35;;;;;;;14.92;94.66;98083.69;5052630;28;20032;-81
2021/09/12 05:55:59;;;;;;;11.65;9.98;;;;;;;14.92;95.00;98082.88;5053184;28;20119;-77
2021/09/12 05:58:24;;;;;;;12.02;10.20;;;;;;;14.74;95.18;98076.50;5055979;28;20025;-79
2021/09/12 06:00:50;;;;;;;20.52;14.07;;;;;;;14.90;94.74;98088.72;5061892;28;20029;-79
2021/09/12 06:03:16;;;;;;;13.20;11.32;;;;;;;14.92;94.75;98089.19;5070954;28;20031;-78
2021/09/12 06:05:41;;;;;;;22.63;16.15;;;;;;;15.08;94.26;98092.31;5070996;28;20035;-76
2021/09/12 06:08:06;;;;;;;20.25;16.65;;;;;;;15.15;93.64;98103.66;5070476;28;20032;-79
2021/09/12 06:10:32;;;;;;;21.65;14.70;;;;;;;14.94;94.45;98094.38;5070599;28;20025;-79
2021/09/12 06:12:58;;;;;;;37.17;22.50;;;;;;;15.20;93.37;98102.69;5070466;28;20039;-77
2021/09/12 06:15:23;;;;;;;39.22;31.52;;;;;;;15.32;92.44;98094.59;5078330;28;20048;-77
2021/09/12 06:17:48;;;;;;;13.02;9.90;;;;;;;15.36;91.87;98090.06;5100701;28;20035;-77
2021/09/12 06:20:14;;;;;;;14.45;10.93;;;;;;;15.46;91.60;98098.03;5097029;28;20448;-80
2021/09/12 06:22:48;;;;;;;14.18;11.30;;;;;;;15.85;89.72;98094.34;5076960;28;20031;-79
2021/09/12 06:25:15;;;;;;;15.93;12.45;;;;;;;16.30;87.15;98100.25;5029183;28;20044;-79
2021/09/12 06:27:41;;;;;;;13.48;10.57;;;;;;;16.55;84.94;98093.88;5073959;28;20044;-78
2021/09/12 06:30:08;;;;;;;17.58;13.25;;;;;;;16.33;85.74;98105.09;5055641;28;20016;-77
2021/09/12 06:32:35;;;;;;;15.98;12.13;;;;;;;16.29;86.20;98102.19;5073912;28;20029;-77
2021/09/12 06:35:01;;;;;;;14.25;11.82;;;;;;;16.42;86.16;98105.91;5076432;28;20120;-81
2021/09/12 06:37:26;;;;;;;12.82;10.43;;;;;;;16.36;85.42;98110.78;5074247;28;20557;-78
2021/09/12 06:39:52;;;;;;;11.45;9.95;;;;;;;16.63;84.77;98109.59;5055102;28;20492;-82
2021/09/12 06:42:17;;;;;;;16.00;10.15;;;;;;;16.42;84.84;98100.38;5073014;28;20059;-79
2021/09/12 06:44:43;;;;;;;11.98;10.13;;;;;;;16.44;84.53;98104.44;5073422;28;20432;-77
2021/09/12 06:47:09;;;;;;;16.02;9.50;;;;;;;16.82;83.73;98110.00;5073437;28;20463;-77
2021/09/12 06:49:34;;;;;;;12.77;10.15;;;;;;;16.69;83.01;98101.94;5055462;28;20027;-80
2021/09/12 06:52:00;;;;;;;17.67;10.18;;;;;;;16.70;83.12;98103.53;5055276;28;20021;-80
2021/09/12 06:54:26;;;;;;;12.73;10.05;;;;;;;16.72;82.47;98107.63;5055310;28;20132;-80
2021/09/12 06:56:52;;;;;;;11.07;9.98;;;;;;;16.92;84.01;98106.03;5055847;28;20020;-82
2021/09/12 06:59:17;;;;;;;10.68;9.57;;;;;;;17.29;79.55;98112.69;5073853;28;20448;-79
2021/09/12 07:01:43;;;;;;;11.35;9.68;;;;;;;17.65;78.69;98112.94;5056351;28;20176;-80
2021/09/12 07:04:08;;;;;;;13.38;10.07;;;;;;;17.66;76.95;98117.34;5049877;28;20004;-81
2021/09/12 07:06:35;;;;;;;13.43;9.40;;;;;;;17.89;76.54;98123.31;5059303;28;20033;-78
2021/09/12 07:09:01;;;;;;;9.90;8.82;;;;;;;17.85;76.62;98128.75;5054169;28;20012;-81
2021/09/12 07:11:26;;;;;;;15.38;8.35;;;;;;;17.97;75.99;98114.13;5054103;28;20693;-80
2021/09/12 07:13:51;;;;;;;13.18;9.50;;;;;;;18.00;75.55;98128.13;5055083;28;20397;-78
2021/09/12 07:16:17;;;;;;;11.50;9.00;;;;;;;18.14;75.92;98109.22;5073091;28;20373;-78
2021/09/12 07:18:43;;;;;;;10.52;8.95;;;;;;;19.00;72.13;98118.56;5072257;28;20059;-78
2021/09/12 07:21:08;;;;;;;13.00;8.95;;;;;;;19.04;71.51;98111.19;5072644;28;20027;-79
2021/09/12 07:23:33;;;;;;;9.45;8.45;;;;;;;19.01;70.74;98118.22;5053237;28;20021;-77
2021/09/12 07:25:59;;;;;;;12.90;8.88;;;;;;;18.94;71.13;98119.94;5053534;28;20081;-79
2021/09/12 07:28:25;;;;;;;15.05;9.30;;;;;;;18.89;71.44;98115.44;5053081;28;20023;-80
2021/09/12 07:30:50;;;;;;;12.73;8.88;;;;;;;19.20;71.69;98118.44;5068191;28;20389;-78
2021/09/12 07:33:15;;;;;;;11.52;8.05;;;;;;;19.54;68.99;98124.69;5072120;28;20028;-79
2021/09/12 07:35:41;;;;;;;9.40;8.40;;;;;;;19.71;68.66;98125.22;5069725;28;20048;-79
2021/09/12 07:38:06;;;;;;;9.80;8.23;;;;;;;19.64;67.81;98111.13;5049315;28;20603;-79
2021/09/12 07:40:32;;;;;;;11.32;8.57;;;;;;;19.66;68.40;98124.66;5071610;28;20389;-84
2021/09/12 07:42:57;;;;;;;8.82;7.43;;;;;;;20.22;67.51;98125.50;5056987;28;20024;-84
2021/09/12 07:45:23;;;;;;;10.48;8.07;;;;;;;21.22;64.32;98122.25;5053962;28;20056;-83
2021/09/12 07:47:48;;;;;;;10.77;8.00;;;;;;;21.29;62.06;98119.63;5053749;28;20008;-82
2021/09/12 07:50:14;;;;;;;12.05;7.45;;;;;;;21.49;63.21;98122.47;5053769;28;20021;-79
2021/09/12 07:52:43;;;;;;;9.65;7.68;;;;;;;21.39;61.87;98123.03;5058610;28;20106;-79
2021/09/12 07:55:13;;;;;;;8.05;7.00;;;;;;;22.63;60.06;98116.13;5066396;28;20526;-78
2021/09/12 07:57:39;;;;;;;9.95;7.03;;;;;;;22.03;59.77;98123.31;5073171;28;20099;-81
2021/09/12 08:00:06;;;;;;;11.32;7.28;;;;;;;23.36;56.01;98115.00;5054279;28;20041;-77
2021/09/12 08:02:32;;;;;;;8.13;6.55;;;;;;;24.86;53.13;98130.59;5072112;28;20354;-79
2021/09/12 08:04:58;;;;;;;11.95;7.45;;;;;;;25.79;49.46;98130.16;5054162;28;20090;-78
2021/09/12 08:07:23;;;;;;;12.05;6.38;;;;;;;25.60;47.12;98130.41;5071726;28;20055;-78
2021/09/12 08:09:49;;;;;;;10.18;6.25;;;;;;;25.66;48.62;98128.84;5053897;28;20529;-77
2021/09/12 08:12:14;;;;;;;15.32;6.82;;;;;;;25.13;49.26;98122.81;5072048;28;20186;-79
2021/09/12 08:14:40;;;;;;;11.65;6.68;;;;;;;26.11;45.96;98128.31;5070430;28;20020;-78
2021/09/12 08:17:07;;;;;;;6.25;5.65;;;;;;;26.84;48.33;98134.66;5054407;28;20028;-79
2021/09/12 08:19:33;;;;;;;7.25;6.00;;;;;;;27.52;43.61;98139.13;5071447;28;20025;-77
2021/09/12 08:21:58;;;;;;;18.63;9.02;;;;;;;28.25;42.67;98130.94;5069763;28;20665;-78
2021/09/12 08:24:24;;;;;;;13.20;9.07;;;;;;;29.41;39.05;98135.13;5052641;28;20074;-78
2021/09/12 08:26:49;;;;;;;6.68;5.82;;;;;;;28.60;39.82;98119.53;5071473;28;20019;-77
2021/09/12 08:29:15;;;;;;;10.07;6.35;;;;;;;26.86;42.71;98123.81;5071507;28;20202;-77
2021/09/12 08:31:40;;;;;;;9.32;6.53;;;;;;;25.10;47.03;98118.81;5059924;28;20029;-80
2021/09/12 08:34:06;;;;;;;9.90;6.47;;;;;;;26.54;46.78;98130.13;5082228;28;20036;-77
2021/09/12 08:36:31;;;;;;;8.98;5.68;;;;;;;26.15;45.26;98123.53;5052983;28;20461;-75
2021/09/12 08:38:57;;;;;;;10.88;5.38;;;;;;;26.39;47.10;98122.88;5070306;28;20031;-74
2021/09/12 08:41:23;;;;;;;8.15;6.07;;;;;;;26.07;45.14;98124.69;5069127;28;20067;-74
2021/09/12 08:43:49;;;;;;;7.82;5.70;;;;;;;24.64;48.37;98117.53;5051702;28;20120;-76
2021/09/12 08:46:18;;;;;;;12.02;6.40;;;;;;;24.21;50.48;98114.28;5069921;28;20031;-73
2021/09/12 08:48:45;;;;;;;7.15;5.50;;;;;;;23.89;50.77;98113.03;5069986;28;20029;-74
2021/09/12 08:51:10;;;;;;;6.78;5.60;;;;;;;23.70;51.19;98110.34;5069331;28;20054;-74
2021/09/12 08:53:36;;;;;;;13.82;6.28;;;;;;;24.28;51.05;98114.34;5069443;28;20036;-75
2021/09/12 08:56:02;;;;;;;10.52;6.50;;;;;;;24.31;50.39;98107.97;5070224;28;20037;-74
2021/09/12 08:58:28;;;;;;;16.80;7.70;;;;;;;24.74;48.82;98112.06;5066086;28;20037;-74
2021/09/12 09:00:58;;;;;;;8.98;6.07;;;;;;;25.71;47.22;98108.88;5068828;28;20031;-77
2021/09/12 09:03:32;;;;;;;9.93;5.88;;;;;;;25.29;46.95;98112.16;5069728;28;20020;-79
2021/09/12 09:05:58;;;;;;;7.55;5.18;;;;;;;25.63;46.55;98098.81;5069322;28;20043;-74
2021/09/12 09:08:23;;;;;;;14.15;6.38;;;;;;;24.72;48.17;98100.44;5069278;28;20043;-77
2021/09/12 09:10:50;;;;;;;7.60;4.97;;;;;;;25.22;46.47;98098.91;5051310;28;20059;-77
2021/09/12 09:13:36;;;;;;;7.70;5.25;;;;;;;25.62;46.69;98100.03;5069961;28;20400;-76
2021/09/12 09:16:04;;;;;;;7.75;5.53;;;;;;;25.51;46.26;98099.94;5052407;28;20807;-79
2021/09/12 09:18:36;;;;;;;9.20;5.38;;;;;;;25.50;46.49;98101.94;5051559;28;20496;-75
2021/09/12 09:21:22;;;;;;;6.70;4.85;;;;;;;25.57;45.83;98098.38;5058661;28;20025;-76
2021/09/12 09:23:48;;;;;;;12.45;6.13;;;;;;;24.97;47.42;98098.69;5081920;28;20025;-76
2021/09/12 09:26:21;;;;;;;7.45;5.18;;;;;;;24.71;48.18;98089.63;5083441;28;20055;-78
2021/09/12 09:28:54;;;;;;;7.68;5.47;;;;;;;25.19;47.52;98084.88;5078428;28;20059;-79
2021/09/12 09:31:23;;;;;;;7.65;5.25;;;;;;;25.74;46.04;98094.09;5070974;28;20464;-76
2021/09/12 09:33:49;;;;;;;7.20;5.13;;;;;;;25.93;45.32;98079.78;5070446;28;20107;-78
2021/09/12 09:36:17;;;;;;;8.57;5.57;;;;;;;26.07;45.82;98096.66;5071553;28;20120;-77
2021/09/12 09:38:46;;;;;;;9.18;4.57;;;;;;;26.08;45.34;98084.25;5053070;28;20576;-76
2021/09/12 09:41:18;;;;;;;7.88;5.40;;;;;;;26.14;45.06;98090.25;5052277;28;20036;-75
2021/09/12 09:43:48;;;;;;;11.38;4.65;;;;;;;26.48;44.61;98083.19;5052385;28;20473;-75
2021/09/12 09:46:31;;;;;;;6.43;4.70;;;;;;;26.99;44.40;98080.09;5071063;28;20389;-74
2021/09/12 09:49:20;;;;;;;6.75;5.25;;;;;;;26.97;43.17;98080.47;5074854;28;20034;-75
2021/09/12 09:51:47;;;;;;;9.18;5.20;;;;;;;26.24;44.28;98084.75;5073300;28;20116;-75
2021/09/12 09:54:14;;;;;;;7.22;5.22;;;;;;;26.75;43.94;98078.06;5073954;28;20028;-73
2021/09/12 09:56:40;;;;;;;13.50;6.32;;;;;;;26.06;44.88;98069.81;5061315;28;20028;-73
2021/09/12 09:59:06;;;;;;;6.22;5.10;;;;;;;25.97;43.84;98077.78;5071053;28;20055;-74
2021/09/12 10:01:33;;;;;;;6.97;4.57;;;;;;;26.14;43.76;98071.44;5074346;28;20029;-72
2021/09/12 10:04:02;;;;;;;6.55;4.80;;;;;;;26.30;43.63;98074.75;5072123;28;20037;-72
2021/09/12 10:06:28;;;;;;;4.97;4.45;;;;;;;26.23;43.75;98071.91;5055766;28;20563;-72
2021/09/12 10:08:54;;;;;;;7.63;4.57;;;;;;;26.14;44.76;98060.22;5074236;28;20036;-73
2021/09/12 10:11:19;;;;;;;6.10;4.55;;;;;;;26.83;42.90;98058.03;5073879;28;20029;-72
2021/09/12 10:13:46;;;;;;;9.80;5.53;;;;;;;26.20;43.59;98064.28;5073533;28;20048;-73
2021/09/12 10:16:16;;;;;;;7.55;4.57;;;;;;;26.03;43.89;98065.78;5072597;28;20021;-73
2021/09/12 10:18:42;;;;;;;5.13;3.92;;;;;;;26.39;43.05;98065.94;5074162;28;20036;-73
2021/09/12 10:21:24;;;;;;;5.07;4.57;;;;;;;26.90;43.23;98057.22;5055869;28;20028;-72
2021/09/12 10:24:07;;;;;;;6.53;4.35;;;;;;;27.21;41.79;98055.63;5056975;28;20065;-74
2021/09/12 10:26:42;;;;;;;8.02;4.93;;;;;;;27.34;40.65;98056.81;5058740;28;20033;-73
2021/09/12 10:29:54;;;;;;;6.28;4.30;;;;;;;27.14;41.63;98048.00;5075893;28;20115;-74
2021/09/12 10:32:34;;;;;;;6.70;4.38;;;;;;;27.21;41.04;98045.19;5053938;28;20536;-73
2021/09/12 10:35:24;;;;;;;5.85;4.70;;;;;;;27.39;41.47;98034.72;5074997;28;20059;-73
2021/09/12 10:38:12;;;;;;;7.28;5.40;;;;;;;27.63;40.90;98033.88;5073659;28;20025;-72
2021/09/12 10:40:47;;;;;;;6.15;4.95;;;;;;;27.51;40.67;98030.69;5055823;28;20389;-72
2021/09/12 10:43:24;;;;;;;9.13;4.30;;;;;;;27.27;40.94;98032.31;5074300;28;20052;-72
2021/09/12 10:46:02;;;;;;;8.43;4.95;;;;;;;27.10;41.62;98022.69;5054863;28;20028;-70
2021/09/12 10:48:36;;;;;;;10.57;5.63;;;;;;;27.22;41.71;98023.50;5044640;28;20029;-72
2021/09/12 10:51:21;;;;;;;6.15;4.47;;;;;;;27.24;40.18;98018.28;5062101;28;20017;-74
2021/09/12 10:53:50;;;;;;;10.23;4.20;;;;;;;26.57;41.59;98025.47;5028711;28;20048;-73
2021/09/12 10:56:19;;;;;;;7.82;5.13;;;;;;;26.29;43.68;98025.44;5065071;28;20028;-72
2021/09/12 10:58:57;;;;;;;15.65;5.05;;;;;;;26.63;41.84;98020.25;5055493;28;20040;-72
2021/09/12 11:01:36;;;;;;;10.98;4.90;;;;;;;26.44;41.68;98007.41;5073142;28;20111;-73
2021/09/12 11:04:02;;;;;;;9.75;4.50;;;;;;;27.08;40.98;98008.28;5054824;28;20579;-71
2021/09/12 11:06:34;;;;;;;4.80;4.35;;;;;;;26.79;41.44;98006.66;5073426;28;20480;-71
2021/09/12 11:09:01;;;;;;;6.65;4.85;;;;;;;26.78;42.03;98009.88;5072823;28;20550;-71
2021/09/12 11:11:28;;;;;;;9.18;5.90;;;;;;;26.83;41.80;98006.69;5073313;28;20088;-72
2021/09/12 11:13:55;;;;;;;20.25;9.98;;;;;;;27.56;40.79;97994.56;5074774;28;20097;-71
2021/09/12 11:16:23;;;;;;;51.58;29.75;;;;;;;27.98;41.21;98004.81;5054655;28;20040;-72
2021/09/12 11:18:54;;;;;;;6.63;4.78;;;;;;;27.21;40.00;97997.41;5073516;28;20030;-72
2021/09/12 11:21:40;;;;;;;5.75;4.53;;;;;;;27.01;41.16;97997.03;5055022;28;20166;-72
2021/09/12 11:24:18;;;;;;;4.90;4.10;;;;;;;26.26;41.69;97989.75;5073751;28;20025;-72